Time;durP1;ratioP1;P1;durP2;ratioP2;P2;SDS_P1;SDS_P2;PMS_P1;PMS_P2;Temp;Humidity;BMP_temperature;BMP_pressure;BME280_temperature;BME280_humidity;BME280_pressure;Samples;Min_cycle;Max_cycle;Signal;HPM_P1;HPM_P2
2022/12/22 03:28:16;;;;;;;13.18;6.60;;;;;;;-144.47;100.00;66069.84;4968628;28;20451;-68
2022/12/22 03:30:41;;;;;;;10.15;6.20;;;;;;;-144.47;100.00;66061.84;4971879;28;20076;-68
2022/12/22 03:33:06;;;;;;;11.80;6.78;;;;;;;-144.47;100.00;66075.81;4981012;28;20120;-66
2022/12/22 03:35:32;;;;;;;11.77;6.45;;;;;;;-144.47;100.00;66055.88;4980864;28;20035;-69
2022/12/22 03:38:02;;;;;;;11.50;6.05;;;;;;;-144.47;100.00;66021.97;4966468;28;20030;-69
2022/12/22 03:40:28;;;;;;;11.43;6.40;;;;;;;-144.47;100.00;66045.91;4999418;23;20049;-69
2022/12/22 03:48:21;;;;;;;14.15;6.25;;;;;;;-144.47;100.00;66041.91;5008407;28;20593;-69
2022/12/22 03:50:47;;;;;;;12.25;6.28;;;;;;;-144.47;100.00;66010.00;5019957;28;20021;-66
2022/12/22 03:53:12;;;;;;;12.70;6.50;;;;;;;-144.47;100.00;66008.03;5013848;28;20109;-69
2022/12/22 03:55:37;;;;;;;17.45;6.35;;;;;;;-144.47;100.00;65996.06;5025782;28;20493;-67
2022/12/22 03:58:03;;;;;;;10.60;5.93;;;;;;;-144.47;100.00;65998.06;5015060;28;20064;-69
2022/12/22 04:00:28;;;;;;;10.88;5.80;;;;;;;-144.47;100.00;65986.09;5017224;28;20025;-68
2022/12/22 04:02:56;;;;;;;10.40;5.75;;;;;;;-144.47;100.00;65986.09;5020561;28;20033;-70
2022/12/22 04:05:22;;;;;;;9.57;5.67;;;;;;;-144.47;100.00;65970.13;4998648;28;20018;-69
2022/12/22 04:07:47;;;;;;;9.60;5.20;;;;;;;-144.47;100.00;66002.03;5005715;28;20283;-66
2022/12/22 04:12:56;;;;;;;10.07;5.80;;;;;;;-144.47;100.00;66014.00;5010173;28;20474;-70
2022/12/22 04:15:24;;;;;;;10.85;5.60;;;;;;;-144.47;100.00;66018.00;5015454;28;20026;-69
2022/12/22 04:17:49;;;;;;;11.23;5.35;;;;;;;-144.47;100.00;65978.13;5020897;28;20026;-67
2022/12/22 04:20:15;;;;;;;9.00;5.18;;;;;;;-144.47;100.00;65994.06;5021535;28;20017;-70
2022/12/22 04:22:41;;;;;;;8.45;4.95;;;;;;;-144.47;100.00;65946.22;5017301;28;20136;-69
2022/12/22 04:25:06;;;;;;;10.50;6.63;;;;;;;-144.47;100.00;65922.28;5017096;28;20403;-69
2022/12/22 04:27:32;;;;;;;8.20;4.68;;;;;;;-144.47;100.00;65922.28;5005519;28;20065;-69
2022/12/22 04:29:58;;;;;;;7.95;4.88;;;;;;;-144.47;100.00;65880.41;5011206;28;20573;-69
2022/12/22 04:32:23;;;;;;;9.98;4.95;;;;;;;-144.47;100.00;65934.25;5019870;28;20536;-69
2022/12/22 04:34:48;;;;;;;8.18;4.78;;;;;;;-144.47;100.00;65904.34;5027960;28;20104;-68
2022/12/22 04:37:14;;;;;;;7.80;4.57;;;;;;;-144.47;100.00;65914.31;5027598;28;20487;-69
2022/12/22 04:39:39;;;;;;;8.75;4.82;;;;;;;-144.47;100.00;65870.44;5026293;28;20496;-69
2022/12/22 04:42:04;;;;;;;7.95;4.47;;;;;;;-144.47;100.00;65882.41;5028806;28;20037;-69
2022/12/22 04:44:30;;;;;;;7.88;3.80;;;;;;;-144.47;100.00;65920.28;5017631;28;20037;-69
2022/12/22 04:46:55;;;;;;;7.07;3.72;;;;;;;-144.47;100.00;65866.47;5031882;28;20033;-69
2022/12/22 04:49:20;;;;;;;9.15;4.63;;;;;;;-144.47;100.00;65842.53;5031511;28;20027;-68
2022/12/22 04:51:46;;;;;;;6.40;3.63;;;;;;;-144.47;100.00;65880.41;5032037;28;20063;-68
2022/12/22 04:54:11;;;;;;;7.72;4.38;;;;;;;-144.47;100.00;65864.47;5017431;28;20534;-68
2022/12/22 04:56:36;;;;;;;8.02;4.35;;;;;;;-144.47;100.00;65830.56;5022088;28;20506;-69
2022/12/22 04:59:02;;;;;;;10.23;4.30;;;;;;;-144.47;100.00;65838.53;5023577;28;20030;-67
2022/12/22 05:01:27;;;;;;;10.60;4.63;;;;;;;-144.47;100.00;65800.66;5019049;28;20080;-66
2022/12/22 05:03:53;;;;;;;10.38;4.07;;;;;;;-144.47;99.82;65814.63;5016924;28;20025;-69
2022/12/22 05:06:18;;;;;;;7.20;4.30;;;;;;;-144.47;99.87;65820.59;5000950;28;20054;-70
2022/12/22 05:08:44;;;;;;;7.05;3.40;;;;;;;-144.47;99.75;65800.66;5007168;28;20025;-70
2022/12/22 05:11:09;;;;;;;6.18;3.75;;;;;;;-144.47;99.95;65804.66;5028234;28;20475;-68
2022/12/22 05:13:34;;;;;;;6.88;3.33;;;;;;;-144.47;99.72;65808.63;5016629;28;20022;-70
2022/12/22 05:16:09;;;;;;;5.43;3.50;;;;;;;-144.47;99.76;65788.69;5024344;28;20021;-68
2022/12/22 05:18:35;;;;;;;6.90;3.63;;;;;;;-144.47;99.75;65790.69;5022458;28;20040;-69
2022/12/22 05:21:03;;;;;;;7.32;3.88;;;;;;;-144.47;99.75;65816.63;5018556;28;20024;-68
2022/12/22 05:23:28;;;;;;;6.40;3.65;;;;;;;-144.47;99.53;65762.78;5018335;28;20033;-67
2022/12/22 05:25:54;;;;;;;8.27;3.88;;;;;;;-144.47;99.82;65770.75;5023854;28;20034;-69
2022/12/22 05:28:19;;;;;;;5.63;3.15;;;;;;;-144.47;99.97;65782.72;5001426;28;20480;-69
2022/12/22 05:30:44;;;;;;;6.35;3.25;;;;;;;-144.47;99.90;65830.56;5015554;28;20018;-69
2022/12/22 05:33:10;;;;;;;6.82;4.05;;;;;;;-144.47;100.00;65772.75;5040652;28;20487;-66
2022/12/22 05:35:35;;;;;;;7.85;3.15;;;;;;;-144.47;100.00;65786.72;5011384;28;20047;-69
2022/12/22 05:38:01;;;;;;;10.00;4.20;;;;;;;-144.47;100.00;65814.63;5011710;28;20028;-69
2022/12/22 05:40:26;;;;;;;7.35;3.85;;;;;;;-144.47;100.00;65786.72;5015340;28;20040;-70
2022/12/22 05:42:51;;;;;;;8.25;3.47;;;;;;;-144.47;100.00;65798.66;5018629;28;20572;-69
2022/12/22 05:45:18;;;;;;;5.60;3.30;;;;;;;-144.47;100.00;65786.72;5017605;28;20033;-69
2022/12/22 05:47:47;;;;;;;5.97;3.53;;;;;;;-144.47;100.00;65764.78;5016868;28;20026;-69
2022/12/22 05:50:14;;;;;;;6.30;3.60;;;;;;;-144.47;100.00;65772.75;5012759;28;20618;-68
2022/12/22 05:52:40;;;;;;;6.53;3.40;;;;;;;-144.47;99.96;65802.66;5024368;28;20920;-69
2022/12/22 05:55:06;;;;;;;5.50;3.63;;;;;;;-144.47;100.00;65794.69;5017998;28;20025;-67
2022/12/22 05:57:31;;;;;;;6.15;3.30;;;;;;;-144.47;100.00;65808.63;5015039;28;20034;-68
2022/12/22 05:59:56;;;;;;;6.80;3.40;;;;;;;-144.47;100.00;65794.69;5013356;28;20041;-69
2022/12/22 06:02:22;;;;;;;6.60;3.92;;;;;;;-144.47;100.00;65772.75;5013379;28;20076;-68
2022/12/22 06:04:47;;;;;;;5.75;3.25;;;;;;;-144.47;100.00;65784.72;5009975;28;20030;-67
2022/12/22 06:07:13;;;;;;;6.78;3.30;;;;;;;-144.47;100.00;65814.63;4997383;28;20100;-69
2022/12/22 06:09:38;;;;;;;7.22;3.30;;;;;;;-144.47;100.00;65794.69;5011794;28;20480;-66
2022/12/22 06:12:04;;;;;;;6.28;3.50;;;;;;;-144.47;100.00;65762.78;5010231;28;20030;-69
2022/12/22 06:14:30;;;;;;;6.35;3.55;;;;;;;-144.47;100.00;65786.72;5011188;28;20034;-67
2022/12/22 06:16:55;;;;;;;6.60;3.03;;;;;;;-144.47;100.00;65786.72;5012280;28;20128;-69
2022/12/22 06:19:21;;;;;;;5.97;3.10;;;;;;;-144.47;100.00;65804.66;5011461;28;20543;-68
2022/12/22 06:21:46;;;;;;;7.10;3.38;;;;;;;-144.47;100.00;65802.66;5012456;28;20045;-68
2022/12/22 06:24:11;;;;;;;6.50;3.55;;;;;;;-144.47;100.00;65774.75;5017494;28;20574;-68
2022/12/22 06:26:37;;;;;;;6.68;3.47;;;;;;;-144.47;100.00;65786.72;5020044;28;20269;-65
2022/12/22 06:29:02;;;;;;;7.55;3.50;;;;;;;-144.47;99.72;65786.72;5005117;28;20022;-67
2022/12/22 06:31:27;;;;;;;7.70;3.90;;;;;;;-144.47;99.32;65770.75;5014189;28;20049;-69
2022/12/22 06:33:53;;;;;;;5.47;3.08;;;;;;;-144.47;99.41;65772.75;5029573;28;20027;-69
2022/12/22 06:36:18;;;;;;;6.82;3.10;;;;;;;-144.47;99.18;65770.75;5010240;28;20074;-72
2022/12/22 06:38:43;;;;;;;9.05;3.83;;;;;;;-144.47;99.21;65792.69;5002956;28;20473;-68
2022/12/22 06:41:09;;;;;;;6.80;3.53;;;;;;;-144.47;98.78;65746.84;5014473;28;20049;-68
2022/12/22 06:43:34;;;;;;;9.60;4.10;;;;;;;-144.47;98.77;65746.84;5002837;28;20034;-69
2022/12/22 06:46:00;;;;;;;8.20;3.63;;;;;;;-144.47;98.85;65699.00;5006181;28;20472;-67
2022/12/22 06:48:25;;;;;;;7.80;3.80;;;;;;;-144.47;98.77;65730.88;5009403;28;20090;-66
2022/12/22 06:50:50;;;;;;;9.43;3.42;;;;;;;-144.47;98.68;65732.88;5022766;28;20017;-69
2022/12/22 06:53:16;;;;;;;6.10;3.40;;;;;;;-144.47;98.55;65716.94;5009912;28;20120;-68
2022/12/22 06:55:41;;;;;;;6.55;3.45;;;;;;;-144.47;98.34;65691.00;5010598;28;20472;-70
2022/12/22 06:58:07;;;;;;;6.50;3.20;;;;;;;-144.47;98.16;65683.03;5008349;28;20519;-68
2022/12/22 07:00:33;;;;;;;6.88;3.55;;;;;;;-144.47;98.26;65700.97;5010890;28;20025;-67
2022/12/22 07:02:58;;;;;;;7.78;3.47;;;;;;;-144.47;98.25;65708.97;5008327;28;20076;-70
2022/12/22 07:05:24;;;;;;;6.07;3.53;;;;;;;-144.47;98.66;65708.97;4999026;28;20109;-71
2022/12/22 07:07:50;;;;;;;6.10;3.80;;;;;;;-144.47;98.43;65697.00;5000229;28;20053;-69
2022/12/22 07:10:15;;;;;;;6.65;3.35;;;;;;;-144.47;98.53;65667.09;5006084;28;20028;-67
2022/12/22 07:12:41;;;;;;;7.28;3.70;;;;;;;-144.47;98.45;65718.94;5013296;28;20093;-69
2022/12/22 07:15:07;;;;;;;9.32;3.35;;;;;;;-144.47;98.52;65689.03;5012701;28;20044;-69
2022/12/22 07:17:32;;;;;;;6.70;3.65;;;;;;;-144.47;98.52;65665.09;5012164;28;20044;-69
2022/12/22 07:19:57;;;;;;;7.72;3.40;;;;;;;-144.47;98.59;65675.06;5009012;28;20022;-68
2022/12/22 07:22:23;;;;;;;6.70;3.22;;;;;;;-144.47;98.74;65673.06;5021345;28;20041;-70
2022/12/22 07:24:49;;;;;;;5.78;3.15;;;;;;;-144.47;98.88;65677.06;5029294;28;20025;-71
2022/12/22 07:27:14;;;;;;;7.18;3.67;;;;;;;-144.47;99.21;65699.00;5016360;28;20096;-67
2022/12/22 07:29:40;;;;;;;7.05;3.47;;;;;;;-144.47;99.33;65681.03;5020952;28;20040;-70
2022/12/22 07:32:06;;;;;;;6.70;3.30;;;;;;;-144.47;99.19;65677.06;5021679;28;20026;-70
2022/12/22 07:34:32;;;;;;;10.50;3.33;;;;;;;-144.47;99.32;65653.13;5010663;28;20437;-70
2022/12/22 07:36:57;;;;;;;7.35;3.15;;;;;;;-144.47;99.56;65645.16;5020758;28;20045;-70
2022/12/22 07:39:22;;;;;;;6.97;3.38;;;;;;;-144.47;99.86;65625.22;5014481;28;20025;-71
2022/12/22 07:44:32;;;;;;;6.38;3.38;;;;;;;-144.47;100.00;65591.34;5010241;28;20080;-67
2022/12/22 07:46:57;;;;;;;5.65;2.80;;;;;;;-144.47;100.00;65603.28;5008514;28;20026;-70
2022/12/22 07:52:07;;;;;;;4.85;2.78;;;;;;;-144.47;100.00;65551.47;5010554;28;20060;-69
2022/12/22 07:54:33;;;;;;;7.57;3.08;;;;;;;-144.47;100.00;65507.59;5008855;28;20058;-68
2022/12/22 07:56:58;;;;;;;10.52;4.50;;;;;;;-144.47;100.00;65501.63;5007189;28;20030;-68
2022/12/22 07:59:24;;;;;;;7.47;2.90;;;;;;;-144.47;100.00;65439.81;5007529;28;20065;-70
2022/12/22 08:01:49;;;;;;;6.97;3.38;;;;;;;-144.47;100.00;65439.81;5007746;28;20026;-70
2022/12/22 08:04:15;;;;;;;7.47;3.20;;;;;;;-144.47;100.00;65330.19;5009762;28;20500;-71
2022/12/22 08:06:41;;;;;;;5.78;3.17;;;;;;;-144.47;100.00;65168.72;4993444;28;20026;-71
2022/12/22 08:09:08;;;;;;;6.78;3.33;;;;;;;-144.47;100.00;64989.31;5013956;28;20033;-73
2022/12/22 08:11:33;;;;;;;8.65;3.13;;;;;;;-144.47;100.00;64937.50;5024986;28;20105;-70
2022/12/22 08:13:59;;;;;;;7.55;3.60;;;;;;;-144.47;100.00;64823.88;5000775;28;20496;-70
2022/12/22 08:16:25;;;;;;;5.75;3.10;;;;;;;-144.47;100.00;64857.75;5004861;28;20026;-76
2022/12/22 08:18:50;;;;;;;7.80;3.40;;;;;;;-144.47;100.00;64887.66;5002803;28;20105;-70
2022/12/22 08:21:16;;;;;;;7.68;3.45;;;;;;;-144.47;100.00;64941.47;5007198;28;20586;-71
2022/12/22 08:23:41;;;;;;;6.20;3.08;;;;;;;-144.47;100.00;65005.25;5011588;28;20033;-72
2022/12/22 08:26:17;;;;;;;5.38;3.13;;;;;;;-144.47;100.00;65043.13;5009266;28;20074;-70
2022/12/22 08:28:49;;;;;;;5.75;3.08;;;;;;;-144.47;100.00;65152.75;5004213;28;20022;-72
2022/12/22 08:31:15;;;;;;;5.78;3.10;;;;;;;-144.47;100.00;65240.47;5007262;28;20477;-71
2022/12/22 08:33:41;;;;;;;6.03;3.15;;;;;;;-144.47;100.00;65288.31;5009638;28;20112;-69
2022/12/22 08:36:08;;;;;;;6.50;2.90;;;;;;;-144.47;100.00;65316.22;5007773;28;20109;-70
2022/12/22 08:38:36;;;;;;;5.43;2.90;;;;;;;-144.47;100.00;65356.09;5007226;28;20505;-70
2022/12/22 08:41:01;;;;;;;8.95;3.80;;;;;;;-144.47;100.00;65403.94;5010817;28;20541;-70
2022/12/22 08:43:29;;;;;;;7.00;3.40;;;;;;;-144.47;100.00;65409.91;5006882;28;20092;-70
2022/12/22 08:45:54;;;;;;;5.25;2.83;;;;;;;-144.47;100.00;65425.88;5006083;28;20559;-70
2022/12/22 08:48:19;;;;;;;6.10;2.22;;;;;;;-144.47;100.00;65459.75;5001688;28;20140;-68
2022/12/22 08:50:45;;;;;;;7.90;2.55;;;;;;;-144.47;100.00;65533.50;5007696;28;20018;-71
2022/12/22 08:53:10;;;;;;;4.35;2.33;;;;;;;-144.47;100.00;65573.38;5008614;28;20061;-71
2022/12/22 08:55:35;;;;;;;5.10;2.28;;;;;;;-144.47;100.00;65565.41;5007182;28;20118;-70
2022/12/22 08:58:01;;;;;;;5.47;2.40;;;;;;;-144.47;100.00;65483.69;5010438;28;20045;-68
2022/12/22 09:00:26;;;;;;;7.57;2.20;;;;;;;-144.47;100.00;65336.16;5007590;28;20021;-72
2022/12/22 09:02:52;;;;;;;4.40;2.42;;;;;;;-144.47;100.00;65176.69;5010878;28;20030;-69
2022/12/22 09:05:17;;;;;;;4.00;2.05;;;;;;;-144.47;100.00;65025.19;5005953;28;20109;-71
2022/12/22 09:07:45;;;;;;;7.63;3.08;;;;;;;-144.47;100.00;64965.41;5013878;28;20672;-71
2022/12/22 09:10:11;;;;;;;8.07;2.53;;;;;;;-144.47;100.00;64776.03;5011743;28;20484;-69
2022/12/22 09:12:37;;;;;;;6.68;2.67;;;;;;;-144.47;100.00;64606.63;5010002;28;20040;-71
2022/12/22 09:15:02;;;;;;;6.25;2.55;;;;;;;-144.47;100.00;64526.91;5017331;28;20116;-70
2022/12/22 09:17:27;;;;;;;6.53;2.65;;;;;;;-144.47;100.00;64341.56;5012804;28;20649;-73
2022/12/22 09:19:53;;;;;;;7.85;2.78;;;;;;;-144.47;100.00;64239.94;5014045;28;20052;-70
2022/12/22 09:22:18;;;;;;;9.65;2.80;;;;;;;-144.47;100.00;64229.97;5014776;28;20408;-68
2022/12/22 09:24:43;;;;;;;8.07;2.60;;;;;;;-144.47;100.00;64172.19;5014059;28;20026;-73
2022/12/22 09:27:09;;;;;;;9.80;2.97;;;;;;;-144.47;100.00;64128.34;5014628;28;20079;-70
2022/12/22 09:29:36;;;;;;;5.95;2.40;;;;;;;-144.47;100.00;64098.44;5014231;28;20431;-72
2022/12/22 09:32:02;;;;;;;7.70;2.38;;;;;;;-144.47;100.00;64012.75;5020880;28;20029;-69
2022/12/22 09:34:28;;;;;;;4.65;2.20;;;;;;;-144.47;100.00;64048.63;5009409;28;20037;-72
2022/12/22 09:36:53;;;;;;;7.32;2.40;;;;;;;-144.47;100.00;63972.91;5011646;28;20029;-70
2022/12/22 09:39:18;;;;;;;7.47;2.60;;;;;;;-144.47;100.00;63610.25;5024140;28;20192;-69
2022/12/22 09:41:50;;;;;;;5.32;2.05;;;;;;;-144.47;100.00;63456.84;5006217;28;20022;-70
2022/12/22 09:44:37;;;;;;;7.07;2.63;;;;;;;-144.47;100.00;63444.88;5011296;28;20048;-70
2022/12/22 09:47:13;;;;;;;6.97;2.80;;;;;;;-144.47;100.00;63193.84;5010128;28;20030;-69
2022/12/22 09:49:38;;;;;;;7.55;3.20;;;;;;;-144.47;100.00;63002.63;5007106;28;20053;-70
2022/12/22 09:52:05;;;;;;;6.20;2.30;;;;;;;-144.47;100.00;62626.13;5018026;28;20507;-71
2022/12/22 09:54:30;;;;;;;7.53;3.17;;;;;;;-144.47;100.00;62199.91;5018369;28;20025;-72
2022/12/22 09:56:56;;;;;;;8.05;2.70;;;;;;;-144.47;100.00;61747.81;5008408;28;20119;-71
2022/12/22 09:59:26;;;;;;;7.90;3.10;;;;;;;-144.47;100.00;61439.19;4994504;28;20128;-71
2022/12/22 10:02:24;;;;;;;5.43;2.15;;;;;;;-144.47;100.00;61176.34;5011503;28;20136;-70
2022/12/22 10:05:03;;;;;;;4.65;2.22;;;;;;;-144.47;100.00;60991.19;4989308;28;20077;-68
2022/12/22 10:07:33;;;;;;;7.05;2.42;;;;;;;-144.47;100.00;60857.81;5000280;28;20026;-68
2022/12/22 10:10:29;;;;;;;5.68;2.13;;;;;;;-144.47;100.00;60802.06;5013215;28;20034;-71
2022/12/22 10:12:58;;;;;;;6.65;2.80;;;;;;;-144.47;100.00;60806.03;4990927;28;20061;-69
2022/12/22 10:15:25;;;;;;;7.32;2.00;;;;;;;-144.47;100.00;60919.53;5006261;28;20030;-68
2022/12/22 10:18:06;;;;;;;4.85;2.17;;;;;;;-144.47;100.00;60983.22;5014699;28;20037;-71
2022/12/22 10:20:32;;;;;;;6.85;2.00;;;;;;;-144.47;100.00;60931.47;5014516;28;20484;-70
2022/12/22 10:23:01;;;;;;;7.63;2.10;;;;;;;-144.47;100.00;60917.53;4992740;28;20091;-69
2022/12/22 10:25:38;;;;;;;5.90;1.90;;;;;;;-144.47;100.00;60913.53;4997146;28;20094;-71
2022/12/22 10:28:11;;;;;;;4.00;1.92;;;;;;;-144.47;100.00;60947.38;4992200;28;20036;-70
2022/12/22 10:30:39;;;;;;;3.58;1.25;;;;;;;-144.47;100.00;61036.97;4993807;28;20030;-69
2022/12/22 10:33:16;;;;;;;7.70;1.73;;;;;;;-144.47;100.00;61078.78;4995708;28;20065;-71
2022/12/22 10:35:48;;;;;;;4.60;1.30;;;;;;;-144.47;100.00;60999.16;4992117;28;20496;-70
2022/12/22 10:38:25;;;;;;;4.15;1.42;;;;;;;-144.47;100.00;60961.31;4990494;28;20061;-71
2022/12/22 10:40:57;;;;;;;2.20;1.20;;;;;;;-144.47;100.00;61001.16;4993195;28;20072;-71
2022/12/22 10:43:29;;;;;;;4.38;1.65;;;;;;;-144.47;99.70;61023.03;4996934;28;20046;-71
2022/12/22 10:45:57;;;;;;;5.65;0.85;;;;;;;-144.47;98.88;61017.06;4997001;28;20041;-68
2022/12/22 10:48:28;;;;;;;3.58;0.80;;;;;;;-144.47;97.97;60849.84;5022122;28;20028;-73
2022/12/22 10:50:55;;;;;;;4.13;1.20;;;;;;;-144.47;98.09;60752.28;5019448;28;20160;-71
2022/12/22 10:53:20;;;;;;;5.22;0.90;;;;;;;-144.47;97.57;60708.50;5010640;28;20036;-72
2022/12/22 10:55:46;;;;;;;3.50;0.95;;;;;;;-144.47;97.16;60662.69;5022526;28;20025;-71
2022/12/22 10:58:17;;;;;;;2.25;1.23;;;;;;;-144.47;96.72;60593.03;5013573;28;20068;-72
2022/12/22 11:00:43;;;;;;;4.00;0.90;;;;;;;-144.47;96.39;60507.44;5009821;28;20052;-71
2022/12/22 11:03:27;;;;;;;1.38;0.80;;;;;;;-144.47;96.32;60511.41;5009607;28;20026;-68
2022/12/22 11:05:56;;;;;;;1.33;0.80;;;;;;;-144.47;96.43;60523.34;4995458;28;20022;-71
2022/12/22 11:08:27;;;;;;;1.27;0.70;;;;;;;-144.47;95.94;60541.28;5007581;28;20028;-70
2022/12/22 11:11:01;;;;;;;0.90;0.52;;;;;;;-144.47;95.52;60591.03;5011095;28;20018;-71
2022/12/22 11:13:40;;;;;;;0.30;0.30;;;;;;;-144.47;95.07;60551.22;5008545;28;20079;-67
2022/12/22 11:16:28;;;;;;;1.05;0.50;;;;;;;-144.47;94.64;60491.50;5009825;28;20049;-70
2022/12/22 11:18:56;;;;;;;1.75;0.90;;;;;;;-144.47;94.43;60507.44;4991841;28;20037;-74
2022/12/22 11:21:25;;;;;;;1.77;0.88;;;;;;;-144.47;93.96;60493.50;4997709;28;20045;-71
2022/12/22 11:24:08;;;;;;;5.55;0.88;;;;;;;-144.47;93.67;60421.84;4992223;28;20026;-70
2022/12/22 11:26:44;;;;;;;4.20;0.90;;;;;;;-144.47;93.41;60376.06;4993948;28;20519;-70
2022/12/22 11:29:24;;;;;;;3.65;1.13;;;;;;;-144.47;92.66;60336.25;4990323;28;20053;-68
2022/12/22 11:31:58;;;;;;;6.45;1.00;;;;;;;-144.47;92.39;60342.22;4990684;28;20026;-72
2022/12/22 11:34:59;;;;;;;3.60;0.75;;;;;;;-144.47;91.84;60248.66;5005854;28;20026;-71
2022/12/22 11:37:34;;;;;;;2.30;0.85;;;;;;;-144.47;90.86;60358.13;4989261;28;20038;-70
2022/12/22 11:39:59;;;;;;;0.98;0.50;;;;;;;-144.47;89.95;60328.28;5016650;28;20538;-71
2022/12/22 11:42:46;;;;;;;1.88;0.70;;;;;;;-144.47;89.81;60340.22;5008170;28;20037;-71
2022/12/22 11:45:42;;;;;;;0.80;0.50;;;;;;;-144.47;89.41;60364.09;5006237;28;20025;-68
2022/12/22 11:48:22;;;;;;;0.77;0.50;;;;;;;-144.47;89.65;60395.97;5006193;28;20423;-72
2022/12/22 11:50:53;;;;;;;1.48;0.60;;;;;;;-144.47;90.20;60471.59;5018627;28;20025;-70
2022/12/22 11:53:30;;;;;;;1.48;0.50;;;;;;;-144.47;90.76;60571.13;5019223;28;20030;-70
2022/12/22 11:56:17;;;;;;;1.20;0.70;;;;;;;-144.47;90.69;60658.72;5018150;28;20117;-73
2022/12/22 11:59:18;;;;;;;1.35;0.68;;;;;;;-144.47;90.92;60682.63;5004619;28;20022;-69
2022/12/22 12:02:16;;;;;;;1.83;0.68;;;;;;;-144.47;90.79;60831.91;5019368;28;20400;-74
2022/12/22 12:05:20;;;;;;;1.27;0.65;;;;;;;-144.47;90.71;60873.72;4941952;28;20050;-70
2022/12/22 12:07:50;;;;;;;1.35;0.60;;;;;;;-144.47;91.15;60881.69;4992898;28;20060;-75
2022/12/22 12:10:43;;;;;;;3.72;0.60;;;;;;;-144.47;91.27;60841.88;5033722;28;20139;-72
2022/12/22 12:13:42;;;;;;;1.65;0.70;;;;;;;-144.47;91.42;60720.44;5020242;28;20037;-73
2022/12/22 12:16:12;;;;;;;1.27;0.63;;;;;;;-144.47;91.39;60776.19;5008304;28;20033;-72
2022/12/22 12:19:14;;;;;;;1.42;0.65;;;;;;;-144.47;92.00;60933.47;5014397;28;20034;-69
2022/12/22 12:21:50;;;;;;;1.90;0.82;;;;;;;-144.47;92.66;60833.91;5032666;28;20160;-72
2022/12/22 12:24:19;;;;;;;2.97;0.75;;;;;;;-144.47;92.85;60981.22;5012129;28;20037;-72
2022/12/22 12:27:06;;;;;;;5.18;0.60;;;;;;;-144.47;93.81;61029.03;5021822;28;20538;-69
2022/12/22 12:29:49;;;;;;;2.13;1.00;;;;;;;-144.47;94.75;61184.31;5016990;28;20719;-71
2022/12/22 12:32:23;;;;;;;0.75;0.50;;;;;;;-144.47;95.81;61184.31;5003814;28;20034;-71
2022/12/22 12:34:55;;;;;;;1.85;0.80;;;;;;;-144.47;96.44;61419.25;5016667;28;20041;-69
2022/12/22 12:37:36;;;;;;;1.40;0.73;;;;;;;-144.47;96.94;61510.84;5023637;28;20033;-69
2022/12/22 12:40:23;;;;;;;0.73;0.43;;;;;;;-144.47;97.26;61488.97;5017935;28;20029;-70
2022/12/22 12:42:50;;;;;;;0.95;0.65;;;;;;;-144.47;97.56;61654.22;5010890;28;20037;-73
2022/12/22 12:45:42;;;;;;;1.58;0.70;;;;;;;-144.47;97.86;61626.34;5002537;28;20030;-71
2022/12/22 12:48:23;;;;;;;3.80;1.00;;;;;;;-144.47;98.05;61512.84;5020775;28;20018;-68
2022/12/22 12:50:56;;;;;;;1.20;0.60;;;;;;;-144.47;98.73;61494.94;5033147;28;20100;-72
2022/12/22 12:53:30;;;;;;;3.75;1.10;;;;;;;-144.47;99.04;61558.66;5018081;28;20562;-72
2022/12/22 12:56:07;;;;;;;2.05;0.80;;;;;;;-144.47;99.48;61704.00;5011631;28;20443;-71
2022/12/22 12:58:39;;;;;;;1.55;0.77;;;;;;;-144.47;99.99;61670.16;5003124;28;20026;-73
2022/12/22 13:01:09;;;;;;;5.22;0.70;;;;;;;-144.47;100.00;61526.78;5025452;28;20083;-69
2022/12/22 13:03:42;;;;;;;1.13;0.90;;;;;;;-144.47;100.00;61433.19;5009862;28;20030;-68
2022/12/22 13:06:09;;;;;;;2.08;0.82;;;;;;;-144.47;100.00;61863.31;5009168;28;20113;-69
2022/12/22 13:08:47;;;;;;;0.95;0.63;;;;;;;-144.47;100.00;61658.22;5010991;28;20041;-71
2022/12/22 13:11:13;;;;;;;3.08;1.00;;;;;;;-144.47;100.00;61596.47;5007172;28;20651;-72
2022/12/22 13:13:39;;;;;;;3.25;1.02;;;;;;;-144.47;100.00;61654.22;5025113;28;20041;-70
2022/12/22 13:16:04;;;;;;;3.58;1.23;;;;;;;-144.47;100.00;61566.63;5023534;28;20060;-73
2022/12/22 13:18:32;;;;;;;2.05;0.98;;;;;;;-144.47;100.00;61534.75;5024792;28;20412;-72
2022/12/22 13:21:04;;;;;;;2.05;1.00;;;;;;;-144.47;100.00;61648.25;5019919;28;20068;-71
2022/12/22 13:23:35;;;;;;;1.92;0.80;;;;;;;-144.47;100.00;61765.75;5016919;28;20030;-70
2022/12/22 13:26:09;;;;;;;2.15;0.80;;;;;;;-144.47;100.00;61984.81;5020770;28;20100;-67
2022/12/22 13:28:38;;;;;;;1.55;0.77;;;;;;;-144.47;100.00;62197.91;5004721;28;20109;-71
2022/12/22 13:31:14;;;;;;;3.17;0.90;;;;;;;-144.47;100.00;62381.13;5008128;28;20030;-71
2022/12/22 13:33:43;;;;;;;1.63;0.80;;;;;;;-144.47;100.00;62600.22;5010467;28;20034;-70
2022/12/22 13:36:25;;;;;;;4.13;0.90;;;;;;;-144.47;100.00;62843.25;5011798;28;20018;-70
2022/12/22 13:39:00;;;;;;;2.20;0.93;;;;;;;-144.47;100.00;63247.66;5007568;28;20101;-68
2022/12/22 13:41:27;;;;;;;2.25;0.88;;;;;;;-144.47;100.00;63466.81;5026953;28;20026;-68
2022/12/22 13:44:01;;;;;;;2.08;0.90;;;;;;;-144.47;100.00;63538.53;5027606;28;20041;-70
2022/12/22 13:46:26;;;;;;;4.05;1.00;;;;;;;-144.47;100.00;63554.47;5017008;28;20061;-67
2022/12/22 13:48:55;;;;;;;1.88;0.80;;;;;;;-144.47;100.00;63705.91;5012497;28;20050;-70
2022/12/22 13:51:20;;;;;;;;;;;;;;;-144.47;100.00;63881.25;5020512;28;20017;-72
2022/12/22 13:54:02;;;;;;;1.08;0.70;;;;;;;-144.47;100.00;64008.78;5030646;28;19916;-71
2022/12/22 13:56:41;;;;;;;6.95;0.90;;;;;;;-144.47;100.00;64084.50;5011341;28;20388;-72
2022/12/22 13:59:40;;;;;;;3.28;0.82;;;;;;;-144.47;100.00;64142.28;5012576;28;20042;-75
2022/12/22 14:02:08;;;;;;;5.80;1.20;;;;;;;-144.47;100.00;64060.59;4999061;28;20038;-73
2022/12/22 14:04:40;;;;;;;2.35;1.30;;;;;;;-144.47;100.00;64052.59;5010017;28;20029;-71
2022/12/22 14:07:17;;;;;;;1.73;1.00;;;;;;;-144.47;100.00;63717.84;5012961;28;20049;-70
2022/12/22 14:09:49;;;;;;;3.10;1.40;;;;;;;-144.47;100.00;63488.72;5011341;28;20037;-69
2022/12/22 14:12:18;;;;;;;5.88;1.50;;;;;;;-144.47;100.00;63397.06;5007577;28;20419;-71
2022/12/22 14:14:44;;;;;;;;;;;;;;;-144.47;100.00;63504.66;5010223;28;20084;-71
2022/12/22 14:17:45;;;;;;;5.47;2.05;;;;;;;-144.47;100.00;63819.47;5011164;28;20522;-69
2022/12/22 14:20:19;;;;;;;2.70;1.40;;;;;;;-144.47;100.00;63797.56;5003948;28;20070;-74
2022/12/22 14:22:52;;;;;;;3.75;1.27;;;;;;;-144.47;100.00;64048.63;5004587;28;20042;-69
2022/12/22 14:25:34;;;;;;;1.70;1.10;;;;;;;-144.47;100.00;64345.56;5007217;28;20105;-68
2022/12/22 14:28:01;;;;;;;2.30;0.95;;;;;;;-144.47;100.00;64477.09;5007888;28;20030;-68
2022/12/22 14:30:35;;;;;;;4.97;1.05;;;;;;;-144.47;100.00;64634.53;5006019;28;20464;-72
2022/12/22 14:33:27;;;;;;;2.25;1.02;;;;;;;-144.47;100.00;64845.81;5012182;28;20685;-69
2022/12/22 14:36:17;;;;;;;2.28;1.00;;;;;;;-144.47;100.00;65090.97;5007022;28;20503;-70
2022/12/22 14:38:48;;;;;;;3.30;1.25;;;;;;;-144.47;100.00;65194.63;5014882;28;20041;-69
2022/12/22 14:41:40;;;;;;;3.78;1.42;;;;;;;-144.47;100.00;65248.44;5006483;28;20022;-71
2022/12/22 14:44:23;;;;;;;4.60;1.40;;;;;;;-144.47;100.00;65288.31;5018420;28;20404;-69
2022/12/22 14:47:13;;;;;;;4.57;1.40;;;;;;;-144.47;100.00;65437.81;5001706;28;20058;-71
2022/12/22 14:50:14;;;;;;;3.10;1.60;;;;;;;-144.47;100.00;65551.47;5016645;28;20115;-71
2022/12/22 14:52:48;;;;;;;4.63;1.73;;;;;;;-144.47;100.00;65710.94;5024967;28;20041;-67
2022/12/22 14:55:36;;;;;;;3.42;1.55;;;;;;;-144.47;100.00;65814.63;5010939;28;20024;-67
2022/12/22 14:58:09;;;;;;;3.78;1.98;;;;;;;-144.47;100.00;65928.28;5005352;28;20472;-70
2022/12/22 15:00:38;;;;;;;3.35;1.60;;;;;;;-144.47;100.00;65904.34;5015368;28;20057;-67
2022/12/22 15:03:25;;;;;;;2.33;1.50;;;;;;;-144.47;100.00;65898.38;5019291;28;20025;-69
2022/12/22 15:05:52;;;;;;;5.45;1.98;;;;;;;-144.47;100.00;66010.00;4999892;28;20029;-67
2022/12/22 15:08:41;;;;;;;3.70;2.00;;;;;;;-144.47;100.00;66075.81;4993837;28;20019;-70